sensor_id;sensor_type;location;lat;lon;timestamp;temperature;humidity
7476;DHT22;3779;49.216;8.650;2022-09-09T00:00:18;26.60;51.80
7476;DHT22;3779;49.216;8.650;2022-09-09T00:03:14;26.60;52.10
7476;DHT22;3779;49.216;8.650;2022-09-09T00:06:16;26.60;51.80
7476;DHT22;3779;49.216;8.650;2022-09-09T00:09:17;26.60;52.20
7476;DHT22;3779;49.216;8.650;2022-09-09T00:12:15;26.60;52.50
7476;DHT22;3779;49.216;8.650;2022-09-09T00:15:07;26.60;52.50
7476;DHT22;3779;49.216;8.650;2022-09-09T00:18:13;26.60;52.50
7476;DHT22;3779;49.216;8.650;2022-09-09T00:21:15;26.60;52.40
7476;DHT22;3779;49.216;8.650;2022-09-09T00:24:26;26.60;52.80
7476;DHT22;3779;49.216;8.650;2022-09-09T00:27:22;26.60;53.10
7476;DHT22;3779;49.216;8.650;2022-09-09T00:33:01;26.60;52.90
7476;DHT22;3779;49.216;8.650;2022-09-09T00:35:56;26.60;52.90
7476;DHT22;3779;49.216;8.650;2022-09-09T00:38:51;26.60;53.00
7476;DHT22;3779;49.216;8.650;2022-09-09T00:55:16;26.60;52.90
7476;DHT22;3779;49.216;8.650;2022-09-09T00:58:06;26.60;53.10
7476;DHT22;3779;49.216;8.650;2022-09-09T01:03:55;26.60;52.80
7476;DHT22;3779;49.216;8.650;2022-09-09T01:06:41;26.60;52.60
7476;DHT22;3779;49.216;8.650;2022-09-09T01:09:38;26.60;52.50
7476;DHT22;3779;49.216;8.650;2022-09-09T01:15:28;26.60;52.70
7476;DHT22;3779;49.216;8.650;2022-09-09T01:18:17;26.60;53.00
7476;DHT22;3779;49.216;8.650;2022-09-09T01:27:23;26.60;52.20
7476;DHT22;3779;49.216;8.650;2022-09-09T01:30:13;26.60;52.40
7476;DHT22;3779;49.216;8.650;2022-09-09T01:33:00;26.60;52.40
7476;DHT22;3779;49.216;8.650;2022-09-09T01:35:59;26.70;52.10
7476;DHT22;3779;49.216;8.650;2022-09-09T01:38:51;26.60;52.40
7476;DHT22;3779;49.216;8.650;2022-09-09T01:41:38;26.70;52.20
7476;DHT22;3779;49.216;8.650;2022-09-09T01:44:30;26.70;52.40
7476;DHT22;3779;49.216;8.650;2022-09-09T01:47:16;26.70;52.00
7476;DHT22;3779;49.216;8.650;2022-09-09T01:50:28;26.70;52.00
7476;DHT22;3779;49.216;8.650;2022-09-09T01:53:18;26.70;52.60
7476;DHT22;3779;49.216;8.650;2022-09-09T02:02:14;26.70;51.80
7476;DHT22;3779;49.216;8.650;2022-09-09T02:08:43;26.60;51.90
7476;DHT22;3779;49.216;8.650;2022-09-09T02:11:30;26.60;52.00
7476;DHT22;3779;49.216;8.650;2022-09-09T02:14:27;26.70;51.90
7476;DHT22;3779;49.216;8.650;2022-09-09T02:17:16;26.70;51.60
7476;DHT22;3779;49.216;8.650;2022-09-09T02:20:18;26.70;51.40
7476;DHT22;3779;49.216;8.650;2022-09-09T02:23:17;26.60;52.10
7476;DHT22;3779;49.216;8.650;2022-09-09T02:26:07;26.70;51.70
7476;DHT22;3779;49.216;8.650;2022-09-09T02:28:55;26.70;52.00
7476;DHT22;3779;49.216;8.650;2022-09-09T02:31:45;26.70;52.10
7476;DHT22;3779;49.216;8.650;2022-09-09T02:34:42;26.70;52.40
7476;DHT22;3779;49.216;8.650;2022-09-09T02:37:33;26.70;51.90
7476;DHT22;3779;49.216;8.650;2022-09-09T02:40:21;26.70;52.10
7476;DHT22;3779;49.216;8.650;2022-09-09T02:43:14;26.70;52.00
7476;DHT22;3779;49.216;8.650;2022-09-09T02:54:45;26.60;52.50
7476;DHT22;3779;49.216;8.650;2022-09-09T02:57:33;26.60;52.30
7476;DHT22;3779;49.216;8.650;2022-09-09T03:00:27;26.60;52.10
7476;DHT22;3779;49.216;8.650;2022-09-09T03:03:17;26.60;52.40
7476;DHT22;3779;49.216;8.650;2022-09-09T03:06:04;26.60;52.40
7476;DHT22;3779;49.216;8.650;2022-09-09T03:08:51;26.60;52.30
7476;DHT22;3779;49.216;8.650;2022-09-09T03:11:43;26.60;52.40
7476;DHT22;3779;49.216;8.650;2022-09-09T03:14:28;26.60;52.30
7476;DHT22;3779;49.216;8.650;2022-09-09T03:17:16;26.60;52.50
7476;DHT22;3779;49.216;8.650;2022-09-09T03:20:09;26.60;52.40
7476;DHT22;3779;49.216;8.650;2022-09-09T03:22:58;26.60;52.50
7476;DHT22;3779;49.216;8.650;2022-09-09T03:25:49;26.60;52.50
7476;DHT22;3779;49.216;8.650;2022-09-09T03:28:38;26.60;52.20
7476;DHT22;3779;49.216;8.650;2022-09-09T03:31:25;26.60;52.30
7476;DHT22;3779;49.216;8.650;2022-09-09T03:34:11;26.60;52.40
7476;DHT22;3779;49.216;8.650;2022-09-09T03:36:57;26.60;52.20
7476;DHT22;3779;49.216;8.650;2022-09-09T03:39:44;26.60;52.20
7476;DHT22;3779;49.216;8.650;2022-09-09T03:42:31;26.60;52.10
7476;DHT22;3779;49.216;8.650;2022-09-09T03:45:17;26.60;52.30
7476;DHT22;3779;49.216;8.650;2022-09-09T03:48:03;26.60;52.20
7476;DHT22;3779;49.216;8.650;2022-09-09T03:50:52;26.50;51.90
7476;DHT22;3779;49.216;8.650;2022-09-09T03:53:39;26.50;52.10
7476;DHT22;3779;49.216;8.650;2022-09-09T03:56:26;26.50;52.00
7476;DHT22;3779;49.216;8.650;2022-09-09T03:59:12;26.50;52.00
7476;DHT22;3779;49.216;8.650;2022-09-09T04:02:01;26.50;51.90
7476;DHT22;3779;49.216;8.650;2022-09-09T04:04:47;26.50;52.00
7476;DHT22;3779;49.216;8.650;2022-09-09T04:07:34;26.60;52.00
7476;DHT22;3779;49.216;8.650;2022-09-09T04:10:20;26.50;51.90
7476;DHT22;3779;49.216;8.650;2022-09-09T04:13:07;26.50;52.10
7476;DHT22;3779;49.216;8.650;2022-09-09T04:15:55;26.50;52.20
7476;DHT22;3779;49.216;8.650;2022-09-09T04:18:42;26.50;52.20
7476;DHT22;3779;49.216;8.650;2022-09-09T04:21:28;26.50;52.20
7476;DHT22;3779;49.216;8.650;2022-09-09T04:24:14;26.50;52.10
7476;DHT22;3779;49.216;8.650;2022-09-09T04:27:02;26.50;51.90
7476;DHT22;3779;49.216;8.650;2022-09-09T04:29:48;26.50;51.90
7476;DHT22;3779;49.216;8.650;2022-09-09T04:32:34;26.50;52.10
7476;DHT22;3779;49.216;8.650;2022-09-09T04:35:21;26.50;52.10
7476;DHT22;3779;49.216;8.650;2022-09-09T04:38:07;26.50;52.20
7476;DHT22;3779;49.216;8.650;2022-09-09T04:40:54;26.50;52.00
7476;DHT22;3779;49.216;8.650;2022-09-09T04:43:41;26.50;52.00
7476;DHT22;3779;49.216;8.650;2022-09-09T04:46:28;26.50;52.10
7476;DHT22;3779;49.216;8.650;2022-09-09T04:49:14;26.50;52.00
7476;DHT22;3779;49.216;8.650;2022-09-09T04:52:00;26.50;52.00
7476;DHT22;3779;49.216;8.650;2022-09-09T04:54:46;26.50;52.20
7476;DHT22;3779;49.216;8.650;2022-09-09T04:57:34;26.50;52.10
7476;DHT22;3779;49.216;8.650;2022-09-09T05:00:20;26.50;52.10
7476;DHT22;3779;49.216;8.650;2022-09-09T05:03:07;26.50;52.40
7476;DHT22;3779;49.216;8.650;2022-09-09T05:06:05;26.50;52.30
7476;DHT22;3779;49.216;8.650;2022-09-09T05:08:51;26.40;52.50
7476;DHT22;3779;49.216;8.650;2022-09-09T05:11:42;26.40;52.30
7476;DHT22;3779;49.216;8.650;2022-09-09T05:14:36;26.50;52.10
7476;DHT22;3779;49.216;8.650;2022-09-09T05:17:23;26.40;52.10
7476;DHT22;3779;49.216;8.650;2022-09-09T05:20:10;26.50;52.00
7476;DHT22;3779;49.216;8.650;2022-09-09T05:22:56;26.50;52.00
7476;DHT22;3779;49.216;8.650;2022-09-09T05:25:55;26.50;52.00
7476;DHT22;3779;49.216;8.650;2022-09-09T05:28:42;26.40;52.40
7476;DHT22;3779;49.216;8.650;2022-09-09T05:31:29;26.50;52.50
7476;DHT22;3779;49.216;8.650;2022-09-09T05:34:15;26.50;52.50
7476;DHT22;3779;49.216;8.650;2022-09-09T05:37:01;26.50;52.50
7476;DHT22;3779;49.216;8.650;2022-09-09T05:39:47;26.40;52.30
7476;DHT22;3779;49.216;8.650;2022-09-09T05:42:33;26.50;52.30
7476;DHT22;3779;49.216;8.650;2022-09-09T05:45:20;26.50;52.50
7476;DHT22;3779;49.216;8.650;2022-09-09T05:48:06;26.50;52.60
7476;DHT22;3779;49.216;8.650;2022-09-09T05:50:54;26.50;52.50
7476;DHT22;3779;49.216;8.650;2022-09-09T05:53:41;26.50;52.80
7476;DHT22;3779;49.216;8.650;2022-09-09T05:56:28;26.50;52.60
7476;DHT22;3779;49.216;8.650;2022-09-09T05:59:15;26.50;52.80
7476;DHT22;3779;49.216;8.650;2022-09-09T06:02:01;26.50;52.60
7476;DHT22;3779;49.216;8.650;2022-09-09T06:04:54;26.50;52.40
7476;DHT22;3779;49.216;8.650;2022-09-09T06:07:42;26.50;52.20
7476;DHT22;3779;49.216;8.650;2022-09-09T06:10:30;26.50;52.30
7476;DHT22;3779;49.216;8.650;2022-09-09T06:13:16;26.50;52.00
7476;DHT22;3779;49.216;8.650;2022-09-09T06:16:03;26.50;51.80
7476;DHT22;3779;49.216;8.650;2022-09-09T06:18:51;26.50;52.10
7476;DHT22;3779;49.216;8.650;2022-09-09T06:21:37;26.60;52.90
7476;DHT22;3779;49.216;8.650;2022-09-09T06:24:25;26.50;53.10
7476;DHT22;3779;49.216;8.650;2022-09-09T06:27:11;26.60;52.80
7476;DHT22;3779;49.216;8.650;2022-09-09T06:29:59;26.60;52.90
7476;DHT22;3779;49.216;8.650;2022-09-09T06:32:48;26.60;52.70
7476;DHT22;3779;49.216;8.650;2022-09-09T06:35:35;26.60;52.60
7476;DHT22;3779;49.216;8.650;2022-09-09T06:38:22;26.60;52.60
7476;DHT22;3779;49.216;8.650;2022-09-09T06:41:09;26.60;52.70
7476;DHT22;3779;49.216;8.650;2022-09-09T06:43:57;26.70;52.40
7476;DHT22;3779;49.216;8.650;2022-09-09T06:46:52;26.70;52.30
7476;DHT22;3779;49.216;8.650;2022-09-09T06:49:38;26.70;52.20
7476;DHT22;3779;49.216;8.650;2022-09-09T06:52:27;26.70;52.40
7476;DHT22;3779;49.216;8.650;2022-09-09T06:55:15;26.70;52.30
7476;DHT22;3779;49.216;8.650;2022-09-09T06:58:02;26.70;52.40
7476;DHT22;3779;49.216;8.650;2022-09-09T07:00:48;26.70;52.40
7476;DHT22;3779;49.216;8.650;2022-09-09T07:03:35;26.70;52.50
7476;DHT22;3779;49.216;8.650;2022-09-09T07:06:29;26.70;52.10
7476;DHT22;3779;49.216;8.650;2022-09-09T07:09:18;26.70;52.20
7476;DHT22;3779;49.216;8.650;2022-09-09T07:12:07;26.70;52.10
7476;DHT22;3779;49.216;8.650;2022-09-09T07:14:55;26.70;52.00
7476;DHT22;3779;49.216;8.650;2022-09-09T07:17:41;26.70;52.20
7476;DHT22;3779;49.216;8.650;2022-09-09T07:20:27;26.70;52.40
7476;DHT22;3779;49.216;8.650;2022-09-09T07:23:13;26.70;52.30
7476;DHT22;3779;49.216;8.650;2022-09-09T07:25:59;26.70;52.30
7476;DHT22;3779;49.216;8.650;2022-09-09T07:28:47;26.70;52.30
7476;DHT22;3779;49.216;8.650;2022-09-09T07:31:35;26.70;52.60
7476;DHT22;3779;49.216;8.650;2022-09-09T07:34:23;26.80;52.70
7476;DHT22;3779;49.216;8.650;2022-09-09T07:37:09;26.80;52.80
7476;DHT22;3779;49.216;8.650;2022-09-09T07:39:59;26.80;52.80
7476;DHT22;3779;49.216;8.650;2022-09-09T07:42:46;26.90;52.60
7476;DHT22;3779;49.216;8.650;2022-09-09T07:45:33;26.90;52.30
7476;DHT22;3779;49.216;8.650;2022-09-09T07:48:19;26.90;52.10
7476;DHT22;3779;49.216;8.650;2022-09-09T07:53:55;27.00;52.00
7476;DHT22;3779;49.216;8.650;2022-09-09T07:56:43;27.00;51.80
7476;DHT22;3779;49.216;8.650;2022-09-09T07:59:31;27.00;51.40
7476;DHT22;3779;49.216;8.650;2022-09-09T08:02:17;27.00;51.10
7476;DHT22;3779;49.216;8.650;2022-09-09T08:05:04;26.90;51.20
7476;DHT22;3779;49.216;8.650;2022-09-09T08:07:51;27.00;51.20
7476;DHT22;3779;49.216;8.650;2022-09-09T08:10:38;27.00;51.20
7476;DHT22;3779;49.216;8.650;2022-09-09T08:13:23;27.00;50.80
7476;DHT22;3779;49.216;8.650;2022-09-09T08:16:12;27.00;50.60
7476;DHT22;3779;49.216;8.650;2022-09-09T08:19:00;26.90;51.70
7476;DHT22;3779;49.216;8.650;2022-09-09T08:21:46;27.00;51.20
7476;DHT22;3779;49.216;8.650;2022-09-09T08:24:32;27.00;51.10
7476;DHT22;3779;49.216;8.650;2022-09-09T08:27:18;27.00;51.40
7476;DHT22;3779;49.216;8.650;2022-09-09T08:30:04;27.10;51.40
7476;DHT22;3779;49.216;8.650;2022-09-09T08:32:50;27.10;51.10
7476;DHT22;3779;49.216;8.650;2022-09-09T08:35:37;27.10;51.10
7476;DHT22;3779;49.216;8.650;2022-09-09T08:38:23;27.10;50.80
7476;DHT22;3779;49.216;8.650;2022-09-09T08:50:36;27.10;53.00
7476;DHT22;3779;49.216;8.650;2022-09-09T08:53:54;27.20;53.30
7476;DHT22;3779;49.216;8.650;2022-09-09T08:56:43;27.10;53.20
7476;DHT22;3779;49.216;8.650;2022-09-09T08:59:30;27.10;53.70
7476;DHT22;3779;49.216;8.650;2022-09-09T09:02:46;27.10;54.60
7476;DHT22;3779;49.216;8.650;2022-09-09T09:05:49;27.10;55.60
7476;DHT22;3779;49.216;8.650;2022-09-09T09:08:51;27.10;55.30
7476;DHT22;3779;49.216;8.650;2022-09-09T09:11:48;27.10;55.00
7476;DHT22;3779;49.216;8.650;2022-09-09T09:14:36;27.10;54.80
7476;DHT22;3779;49.216;8.650;2022-09-09T09:17:28;27.20;55.50
7476;DHT22;3779;49.216;8.650;2022-09-09T09:20:23;27.20;55.30
7476;DHT22;3779;49.216;8.650;2022-09-09T09:23:24;27.20;55.20
7476;DHT22;3779;49.216;8.650;2022-09-09T09:26:12;27.30;54.80
7476;DHT22;3779;49.216;8.650;2022-09-09T09:29:03;27.30;54.10
7476;DHT22;3779;49.216;8.650;2022-09-09T09:31:59;27.30;54.00
7476;DHT22;3779;49.216;8.650;2022-09-09T09:34:56;27.30;53.60
7476;DHT22;3779;49.216;8.650;2022-09-09T09:37:42;27.30;53.40
7476;DHT22;3779;49.216;8.650;2022-09-09T09:40:31;27.30;53.70
7476;DHT22;3779;49.216;8.650;2022-09-09T09:43:24;27.40;53.30
7476;DHT22;3779;49.216;8.650;2022-09-09T09:46:22;27.40;53.80
7476;DHT22;3779;49.216;8.650;2022-09-09T09:49:14;27.50;53.00
7476;DHT22;3779;49.216;8.650;2022-09-09T09:52:03;27.50;52.00
7476;DHT22;3779;49.216;8.650;2022-09-09T09:54:50;27.50;51.30
7476;DHT22;3779;49.216;8.650;2022-09-09T09:57:38;27.50;51.40
7476;DHT22;3779;49.216;8.650;2022-09-09T10:00:28;27.50;51.60
7476;DHT22;3779;49.216;8.650;2022-09-09T10:03:30;27.60;51.10
7476;DHT22;3779;49.216;8.650;2022-09-09T10:06:32;27.60;51.30
7476;DHT22;3779;49.216;8.650;2022-09-09T10:09:30;27.60;52.10
7476;DHT22;3779;49.216;8.650;2022-09-09T10:15:48;27.60;50.70
7476;DHT22;3779;49.216;8.650;2022-09-09T10:21:56;27.50;50.90
7476;DHT22;3779;49.216;8.650;2022-09-09T10:43:42;27.20;53.30
7476;DHT22;3779;49.216;8.650;2022-09-09T10:46:43;27.20;53.30
7476;DHT22;3779;49.216;8.650;2022-09-09T10:53:27;27.40;52.40
7476;DHT22;3779;49.216;8.650;2022-09-09T10:56:13;27.40;52.80
7476;DHT22;3779;49.216;8.650;2022-09-09T10:59:13;27.30;52.70
7476;DHT22;3779;49.216;8.650;2022-09-09T11:02:13;27.40;51.70
7476;DHT22;3779;49.216;8.650;2022-09-09T11:05:20;27.40;52.10
7476;DHT22;3779;49.216;8.650;2022-09-09T11:08:12;27.50;50.90
7476;DHT22;3779;49.216;8.650;2022-09-09T11:11:29;27.50;51.20
7476;DHT22;3779;49.216;8.650;2022-09-09T11:17:58;27.60;51.00
7476;DHT22;3779;49.216;8.650;2022-09-09T11:20:47;27.40;52.20
7476;DHT22;3779;49.216;8.650;2022-09-09T11:23:44;27.50;50.70
7476;DHT22;3779;49.216;8.650;2022-09-09T11:26:54;27.50;50.80
7476;DHT22;3779;49.216;8.650;2022-09-09T11:42:20;27.30;51.60
7476;DHT22;3779;49.216;8.650;2022-09-09T11:48:29;27.30;50.20
7476;DHT22;3779;49.216;8.650;2022-09-09T11:54:47;27.40;49.10
7476;DHT22;3779;49.216;8.650;2022-09-09T11:57:35;27.40;51.40
7476;DHT22;3779;49.216;8.650;2022-09-09T12:00:37;27.30;49.40
7476;DHT22;3779;49.216;8.650;2022-09-09T12:03:38;27.40;49.50
7476;DHT22;3779;49.216;8.650;2022-09-09T12:06:31;27.40;51.30
7476;DHT22;3779;49.216;8.650;2022-09-09T12:09:49;27.40;49.20
7476;DHT22;3779;49.216;8.650;2022-09-09T12:12:38;27.50;49.30
7476;DHT22;3779;49.216;8.650;2022-09-09T12:15:27;27.50;46.90
7476;DHT22;3779;49.216;8.650;2022-09-09T12:18:22;27.50;48.80
7476;DHT22;3779;49.216;8.650;2022-09-09T12:21:31;27.50;47.80
7476;DHT22;3779;49.216;8.650;2022-09-09T12:27:43;27.50;48.90
7476;DHT22;3779;49.216;8.650;2022-09-09T12:33:46;27.60;46.70
7476;DHT22;3779;49.216;8.650;2022-09-09T12:36:33;27.50;47.10
7476;DHT22;3779;49.216;8.650;2022-09-09T12:42:17;27.50;47.30
7476;DHT22;3779;49.216;8.650;2022-09-09T12:45:14;27.50;46.60
7476;DHT22;3779;49.216;8.650;2022-09-09T12:48:09;27.50;47.30
7476;DHT22;3779;49.216;8.650;2022-09-09T12:51:01;27.40;48.10
7476;DHT22;3779;49.216;8.650;2022-09-09T12:53:47;27.50;47.10
7476;DHT22;3779;49.216;8.650;2022-09-09T12:56:33;27.40;48.70
7476;DHT22;3779;49.216;8.650;2022-09-09T12:59:27;27.50;49.10
7476;DHT22;3779;49.216;8.650;2022-09-09T13:02:21;27.40;49.10
7476;DHT22;3779;49.216;8.650;2022-09-09T13:05:23;27.40;50.10
7476;DHT22;3779;49.216;8.650;2022-09-09T13:08:11;27.40;50.80
7476;DHT22;3779;49.216;8.650;2022-09-09T13:11:00;27.40;50.70
7476;DHT22;3779;49.216;8.650;2022-09-09T13:13:54;27.40;51.00
7476;DHT22;3779;49.216;8.650;2022-09-09T13:16:41;27.40;51.20
7476;DHT22;3779;49.216;8.650;2022-09-09T13:19:31;27.40;51.40
7476;DHT22;3779;49.216;8.650;2022-09-09T13:25:21;27.40;52.20
7476;DHT22;3779;49.216;8.650;2022-09-09T13:28:21;27.30;52.20
7476;DHT22;3779;49.216;8.650;2022-09-09T13:31:21;27.30;52.30
7476;DHT22;3779;49.216;8.650;2022-09-09T13:34:24;27.30;51.30
7476;DHT22;3779;49.216;8.650;2022-09-09T13:37:36;27.30;51.30
7476;DHT22;3779;49.216;8.650;2022-09-09T13:40:23;27.20;51.40
7476;DHT22;3779;49.216;8.650;2022-09-09T13:43:23;27.30;50.90
7476;DHT22;3779;49.216;8.650;2022-09-09T13:49:22;27.20;51.90
7476;DHT22;3779;49.216;8.650;2022-09-09T13:52:16;27.20;51.20
7476;DHT22;3779;49.216;8.650;2022-09-09T13:55:05;27.20;51.40
7476;DHT22;3779;49.216;8.650;2022-09-09T13:57:57;27.20;51.20
7476;DHT22;3779;49.216;8.650;2022-09-09T14:00:43;27.20;51.40
7476;DHT22;3779;49.216;8.650;2022-09-09T14:03:30;27.20;50.90
7476;DHT22;3779;49.216;8.650;2022-09-09T14:06:15;27.20;51.20
7476;DHT22;3779;49.216;8.650;2022-09-09T14:09:01;27.20;50.80
7476;DHT22;3779;49.216;8.650;2022-09-09T14:11:47;27.30;51.00
7476;DHT22;3779;49.216;8.650;2022-09-09T14:14:33;27.30;51.00
7476;DHT22;3779;49.216;8.650;2022-09-09T14:17:19;27.30;51.40
7476;DHT22;3779;49.216;8.650;2022-09-09T14:20:05;27.30;51.50
7476;DHT22;3779;49.216;8.650;2022-09-09T14:22:57;27.40;50.90
7476;DHT22;3779;49.216;8.650;2022-09-09T14:25:43;27.30;50.80
7476;DHT22;3779;49.216;8.650;2022-09-09T14:28:29;27.30;50.80
7476;DHT22;3779;49.216;8.650;2022-09-09T14:31:15;27.40;50.80
7476;DHT22;3779;49.216;8.650;2022-09-09T14:34:05;27.40;50.80
7476;DHT22;3779;49.216;8.650;2022-09-09T14:36:51;27.40;51.40
7476;DHT22;3779;49.216;8.650;2022-09-09T14:39:37;27.40;51.60
7476;DHT22;3779;49.216;8.650;2022-09-09T14:42:23;27.30;52.20
7476;DHT22;3779;49.216;8.650;2022-09-09T14:45:09;27.40;51.10
7476;DHT22;3779;49.216;8.650;2022-09-09T14:47:55;27.40;50.70
7476;DHT22;3779;49.216;8.650;2022-09-09T14:50:41;27.40;50.30
7476;DHT22;3779;49.216;8.650;2022-09-09T14:53:28;27.40;50.10
7476;DHT22;3779;49.216;8.650;2022-09-09T14:56:17;27.40;50.40
7476;DHT22;3779;49.216;8.650;2022-09-09T14:59:03;27.40;50.70
7476;DHT22;3779;49.216;8.650;2022-09-09T15:01:49;27.40;50.30
7476;DHT22;3779;49.216;8.650;2022-09-09T15:04:35;27.50;50.10
7476;DHT22;3779;49.216;8.650;2022-09-09T15:07:21;27.50;49.60
7476;DHT22;3779;49.216;8.650;2022-09-09T15:10:08;27.40;49.00
7476;DHT22;3779;49.216;8.650;2022-09-09T15:12:54;27.40;49.40
7476;DHT22;3779;49.216;8.650;2022-09-09T15:15:40;27.30;49.30
7476;DHT22;3779;49.216;8.650;2022-09-09T15:18:27;27.30;49.30
7476;DHT22;3779;49.216;8.650;2022-09-09T15:21:15;27.30;48.40
7476;DHT22;3779;49.216;8.650;2022-09-09T15:24:02;27.30;49.30
7476;DHT22;3779;49.216;8.650;2022-09-09T15:26:48;27.30;49.10
7476;DHT22;3779;49.216;8.650;2022-09-09T15:29:33;27.20;49.30
7476;DHT22;3779;49.216;8.650;2022-09-09T15:32:19;27.20;50.30
7476;DHT22;3779;49.216;8.650;2022-09-09T15:35:05;27.30;51.10
7476;DHT22;3779;49.216;8.650;2022-09-09T15:37:51;27.20;51.60
7476;DHT22;3779;49.216;8.650;2022-09-09T15:40:37;27.20;50.60
7476;DHT22;3779;49.216;8.650;2022-09-09T15:43:23;27.30;50.60
7476;DHT22;3779;49.216;8.650;2022-09-09T15:49:23;27.30;52.10
7476;DHT22;3779;49.216;8.650;2022-09-09T15:52:10;27.20;52.50
7476;DHT22;3779;49.216;8.650;2022-09-09T15:54:56;27.20;52.10
7476;DHT22;3779;49.216;8.650;2022-09-09T15:57:42;27.20;51.40
7476;DHT22;3779;49.216;8.650;2022-09-09T16:00:28;27.20;51.60
7476;DHT22;3779;49.216;8.650;2022-09-09T16:03:14;27.20;51.60
7476;DHT22;3779;49.216;8.650;2022-09-09T16:06:01;27.20;51.90
7476;DHT22;3779;49.216;8.650;2022-09-09T16:08:49;27.20;52.00
7476;DHT22;3779;49.216;8.650;2022-09-09T16:11:37;27.20;52.50
7476;DHT22;3779;49.216;8.650;2022-09-09T16:14:23;27.20;52.70
7476;DHT22;3779;49.216;8.650;2022-09-09T16:17:11;27.20;52.10
7476;DHT22;3779;49.216;8.650;2022-09-09T16:19:57;27.20;52.00
7476;DHT22;3779;49.216;8.650;2022-09-09T16:22:43;27.20;52.00
7476;DHT22;3779;49.216;8.650;2022-09-09T16:25:28;27.20;52.00
7476;DHT22;3779;49.216;8.650;2022-09-09T16:28:14;27.20;51.50
7476;DHT22;3779;49.216;8.650;2022-09-09T16:31:04;27.20;51.90
7476;DHT22;3779;49.216;8.650;2022-09-09T16:33:51;27.10;52.10
7476;DHT22;3779;49.216;8.650;2022-09-09T16:36:38;27.10;51.90
7476;DHT22;3779;49.216;8.650;2022-09-09T16:39:25;27.10;52.20
7476;DHT22;3779;49.216;8.650;2022-09-09T16:42:11;27.10;51.70
7476;DHT22;3779;49.216;8.650;2022-09-09T16:44:57;27.10;51.80
7476;DHT22;3779;49.216;8.650;2022-09-09T16:47:43;27.10;52.00
7476;DHT22;3779;49.216;8.650;2022-09-09T16:50:30;27.10;52.00
7476;DHT22;3779;49.216;8.650;2022-09-09T16:53:16;27.10;52.20
7476;DHT22;3779;49.216;8.650;2022-09-09T16:56:10;27.10;52.00
7476;DHT22;3779;49.216;8.650;2022-09-09T16:58:59;27.10;52.00
7476;DHT22;3779;49.216;8.650;2022-09-09T17:01:46;27.10;51.90
7476;DHT22;3779;49.216;8.650;2022-09-09T17:04:33;27.10;51.90
7476;DHT22;3779;49.216;8.650;2022-09-09T17:07:18;27.10;51.80
7476;DHT22;3779;49.216;8.650;2022-09-09T17:10:05;27.10;52.40
7476;DHT22;3779;49.216;8.650;2022-09-09T17:12:52;27.10;51.90
7476;DHT22;3779;49.216;8.650;2022-09-09T17:15:41;27.10;52.40
7476;DHT22;3779;49.216;8.650;2022-09-09T17:18:30;27.10;52.70
7476;DHT22;3779;49.216;8.650;2022-09-09T17:21:18;27.00;52.80
7476;DHT22;3779;49.216;8.650;2022-09-09T17:24:04;27.00;53.20
7476;DHT22;3779;49.216;8.650;2022-09-09T17:26:41;27.00;52.90
7476;DHT22;3779;49.216;8.650;2022-09-09T17:29:27;27.00;52.60
7476;DHT22;3779;49.216;8.650;2022-09-09T17:32:13;27.00;52.30
7476;DHT22;3779;49.216;8.650;2022-09-09T17:34:59;27.00;52.50
7476;DHT22;3779;49.216;8.650;2022-09-09T17:37:28;27.00;52.40
7476;DHT22;3779;49.216;8.650;2022-09-09T17:40:14;26.90;52.50
7476;DHT22;3779;49.216;8.650;2022-09-09T17:43:00;26.90;52.30
7476;DHT22;3779;49.216;8.650;2022-09-09T17:45:46;26.90;52.20
7476;DHT22;3779;49.216;8.650;2022-09-09T17:48:34;26.90;52.30
7476;DHT22;3779;49.216;8.650;2022-09-09T17:51:23;27.00;52.20
7476;DHT22;3779;49.216;8.650;2022-09-09T17:54:16;27.00;52.10
7476;DHT22;3779;49.216;8.650;2022-09-09T17:57:03;26.90;51.70
7476;DHT22;3779;49.216;8.650;2022-09-09T17:59:49;26.90;51.50
7476;DHT22;3779;49.216;8.650;2022-09-09T18:02:35;26.90;51.70
7476;DHT22;3779;49.216;8.650;2022-09-09T18:05:12;26.90;51.20
7476;DHT22;3779;49.216;8.650;2022-09-09T18:07:57;26.90;51.80
7476;DHT22;3779;49.216;8.650;2022-09-09T18:10:51;26.90;52.10
7476;DHT22;3779;49.216;8.650;2022-09-09T18:13:38;26.90;52.00
7476;DHT22;3779;49.216;8.650;2022-09-09T18:16:11;26.90;51.80
7476;DHT22;3779;49.216;8.650;2022-09-09T18:18:58;26.90;51.70
7476;DHT22;3779;49.216;8.650;2022-09-09T18:21:45;26.90;51.60
7476;DHT22;3779;49.216;8.650;2022-09-09T18:24:31;26.90;51.50
7476;DHT22;3779;49.216;8.650;2022-09-09T18:27:17;26.90;51.70
7476;DHT22;3779;49.216;8.650;2022-09-09T18:30:03;26.90;51.20
7476;DHT22;3779;49.216;8.650;2022-09-09T18:32:51;26.90;51.30
7476;DHT22;3779;49.216;8.650;2022-09-09T18:35:37;26.90;51.20
7476;DHT22;3779;49.216;8.650;2022-09-09T18:38:25;26.90;51.30
7476;DHT22;3779;49.216;8.650;2022-09-09T18:44:10;26.90;51.50
7476;DHT22;3779;49.216;8.650;2022-09-09T18:46:58;26.90;51.80
7476;DHT22;3779;49.216;8.650;2022-09-09T18:49:44;26.90;51.80
7476;DHT22;3779;49.216;8.650;2022-09-09T18:52:31;26.90;52.10
7476;DHT22;3779;49.216;8.650;2022-09-09T18:55:17;26.90;52.10
7476;DHT22;3779;49.216;8.650;2022-09-09T18:58:03;26.90;52.30
7476;DHT22;3779;49.216;8.650;2022-09-09T19:00:49;26.90;52.20
7476;DHT22;3779;49.216;8.650;2022-09-09T19:03:35;26.90;52.40
7476;DHT22;3779;49.216;8.650;2022-09-09T19:06:24;26.90;52.50
7476;DHT22;3779;49.216;8.650;2022-09-09T19:09:12;26.90;52.60
7476;DHT22;3779;49.216;8.650;2022-09-09T19:11:59;26.90;52.60
7476;DHT22;3779;49.216;8.650;2022-09-09T19:14:45;26.90;52.40
7476;DHT22;3779;49.216;8.650;2022-09-09T19:17:31;26.90;52.40
7476;DHT22;3779;49.216;8.650;2022-09-09T19:20:18;26.90;52.70
7476;DHT22;3779;49.216;8.650;2022-09-09T19:23:08;26.90;52.60
7476;DHT22;3779;49.216;8.650;2022-09-09T19:25:54;26.90;52.80
7476;DHT22;3779;49.216;8.650;2022-09-09T19:28:40;26.90;53.00
7476;DHT22;3779;49.216;8.650;2022-09-09T19:31:27;26.90;53.40
7476;DHT22;3779;49.216;8.650;2022-09-09T19:34:13;26.90;53.60
7476;DHT22;3779;49.216;8.650;2022-09-09T19:36:59;26.90;53.70
7476;DHT22;3779;49.216;8.650;2022-09-09T19:39:46;26.90;53.60
7476;DHT22;3779;49.216;8.650;2022-09-09T19:42:32;27.00;53.20
7476;DHT22;3779;49.216;8.650;2022-09-09T19:45:18;27.00;52.80
7476;DHT22;3779;49.216;8.650;2022-09-09T19:48:04;27.00;53.10
7476;DHT22;3779;49.216;8.650;2022-09-09T19:50:52;27.00;52.30
7476;DHT22;3779;49.216;8.650;2022-09-09T19:53:41;27.00;52.40
7476;DHT22;3779;49.216;8.650;2022-09-09T19:56:27;27.10;52.10
7476;DHT22;3779;49.216;8.650;2022-09-09T19:59:14;27.00;51.90
7476;DHT22;3779;49.216;8.650;2022-09-09T20:02:00;27.00;52.00
7476;DHT22;3779;49.216;8.650;2022-09-09T20:04:45;27.00;52.10
7476;DHT22;3779;49.216;8.650;2022-09-09T20:07:31;27.00;52.40
7476;DHT22;3779;49.216;8.650;2022-09-09T20:10:17;27.00;52.30
7476;DHT22;3779;49.216;8.650;2022-09-09T20:13:03;27.00;52.40
7476;DHT22;3779;49.216;8.650;2022-09-09T20:15:59;27.00;52.30
7476;DHT22;3779;49.216;8.650;2022-09-09T20:18:47;26.90;52.20
7476;DHT22;3779;49.216;8.650;2022-09-09T20:21:37;26.90;52.20
7476;DHT22;3779;49.216;8.650;2022-09-09T20:24:23;26.90;52.10
7476;DHT22;3779;49.216;8.650;2022-09-09T20:27:10;26.90;51.90
7476;DHT22;3779;49.216;8.650;2022-09-09T20:29:56;26.90;51.90
7476;DHT22;3779;49.216;8.650;2022-09-09T20:32:42;26.90;52.10
7476;DHT22;3779;49.216;8.650;2022-09-09T20:35:28;26.90;52.10
7476;DHT22;3779;49.216;8.650;2022-09-09T20:38:14;26.90;52.80